Beaver Islander — WT5906 — position and weather

sailwx.info

Track history (hours):
 
Tides and Currents Weather Stations Pressure Air Temp Water Temp Dewpoint Dewpoint Depression Visibility Wind Speed Wind Dir Waves Ship Positions

Beaver Islander

Owner: BEAVER ISLAND BOAT CO, CHARLEVOIX, MI. More information available from US FCC via Universal Licensing System and Coast Guard Vessel Documentation Center.

Last reported at 2014-Dec-12 18:33 UTC. Time now 2014-Dec-22 07:02 UTC.
Position N 45°44' W 085°29'.
Warning: this ship's position is 9 days out of date.

Length 28 m; draft 3 m.

Type: Passenger vessel. MMSI: 366936060.

Date/timePositionNaut miles runAvg speedWind from/ knotsBaromVisibWave heightAir tempDewpointWater temp
2014-Dec-12 18:33N 45°44' W 085°29'1312.9
2014-Dec-12 17:33N 45°32' W 085°22'1312.9
2014-Dec-12 16:33N 45°19' W 085°16'1 0.5
2014-Dec-12 15:33N 45°19' W 085°15'1212.2
2014-Dec-12 14:33N 45°30' W 085°22'1313.4
2014-Dec-12 13:33N 45°43' W 085°29'3 0.1
2014-Dec-10 18:33N 45°40' W 085°27'1313.1
2014-Dec-10 17:33N 45°28' W 085°21'10 9.9
2014-Dec-10 16:33N 45°19' W 085°15'0 0.1
2014-Dec-10 15:33N 45°19' W 085°15'1212.3
2014-Dec-10 14:33N 45°30' W 085°22'1313.2
2014-Dec-10 13:33N 45°43' W 085°29'  
2014-Dec-05 18:33N 45°41' W 085°28'1313.0
2014-Dec-05 17:33N 45°29' W 085°21'1110.6
2014-Dec-05 16:33N 45°19' W 085°15'0 0.1
2014-Dec-05 15:33N 45°19' W 085°15'1212.4
2014-Dec-05 14:33N 45°31' W 085°22'1313.1
2014-Dec-05 13:33N 45°43' W 085°29'3 2.7
2014-Dec-05 12:33N 45°45' W 085°31'2 0.0
2014-Dec-03 19:27N 45°44' W 085°29'1112.5
2014-Dec-03 18:33N 45°33' W 085°27'9 9.1
2014-Dec-03 17:33N 45°24' W 085°24'7 7.3
2014-Dec-03 16:33N 45°19' W 085°15'0 0.1
2014-Dec-03 15:33N 45°19' W 085°15'1211.9
2014-Dec-03 14:33N 45°30' W 085°22'1313.2
2014-Dec-03 13:33N 45°42' W 085°28'3 3.0
2014-Dec-03 12:33N 45°45' W 085°31'  
Track history (hours):
 
Tides and Currents Weather Stations Pressure Air Temp Water Temp Dewpoint Dewpoint Depression Visibility Wind Speed Wind Dir Waves Ship Positions

Beaver Islander

Owner: BEAVER ISLAND BOAT CO, CHARLEVOIX, MI. More information available from US FCC via Universal Licensing System and Coast Guard Vessel Documentation Center.

Last reported at 2014-Dec-12 18:33 UTC. Time now 2014-Dec-22 07:02 UTC.
Position N 45°44' W 085°29'.
Warning: this ship's position is 9 days out of date.

Length 28 m; draft 3 m.

Type: Passenger vessel. MMSI: 366936060.

Date/timePositionNaut miles runAvg speedWind from/ knotsBaromVisibWave heightAir tempDewpointWater temp
2014-Dec-12 18:33N 45°44' W 085°29'1312.9
2014-Dec-12 17:33N 45°32' W 085°22'1312.9
2014-Dec-12 16:33N 45°19' W 085°16'1 0.5
2014-Dec-12 15:33N 45°19' W 085°15'1212.2
2014-Dec-12 14:33N 45°30' W 085°22'1313.4
2014-Dec-12 13:33N 45°43' W 085°29'3 0.1
2014-Dec-10 18:33N 45°40' W 085°27'1313.1
2014-Dec-10 17:33N 45°28' W 085°21'10 9.9
2014-Dec-10 16:33N 45°19' W 085°15'0 0.1
2014-Dec-10 15:33N 45°19' W 085°15'1212.3
2014-Dec-10 14:33N 45°30' W 085°22'1313.2
2014-Dec-10 13:33N 45°43' W 085°29'  
2014-Dec-05 18:33N 45°41' W 085°28'1313.0
2014-Dec-05 17:33N 45°29' W 085°21'1110.6
2014-Dec-05 16:33N 45°19' W 085°15'0 0.1
2014-Dec-05 15:33N 45°19' W 085°15'1212.4
2014-Dec-05 14:33N 45°31' W 085°22'1313.1
2014-Dec-05 13:33N 45°43' W 085°29'3 2.7
2014-Dec-05 12:33N 45°45' W 085°31'2 0.0
2014-Dec-03 19:27N 45°44' W 085°29'1112.5
2014-Dec-03 18:33N 45°33' W 085°27'9 9.1
2014-Dec-03 17:33N 45°24' W 085°24'7 7.3
2014-Dec-03 16:33N 45°19' W 085°15'0 0.1
2014-Dec-03 15:33N 45°19' W 085°15'1211.9
2014-Dec-03 14:33N 45°30' W 085°22'1313.2
2014-Dec-03 13:33N 45°42' W 085°28'3 3.0
2014-Dec-03 12:33N 45°45' W 085°31'  

Dump ship's entire track history